sensor_id;sensor_type;location;lat;lon;timestamp;pressure;altitude;pressure_sealevel;temperature;humidity
62057;BME280;48016;50.284;18.860;2022-11-11T00:01:32;99566.50;;;4.89;86.68
62057;BME280;48016;50.284;18.860;2022-11-11T00:03:58;99573.56;;;4.87;86.64
62057;BME280;48016;50.284;18.860;2022-11-11T00:06:26;99581.33;;;4.85;86.69
62057;BME280;48016;50.284;18.860;2022-11-11T00:08:52;99582.23;;;4.83;86.89
62057;BME280;48016;50.284;18.860;2022-11-11T00:11:19;99584.51;;;4.84;86.97
62057;BME280;48016;50.284;18.860;2022-11-11T00:13:45;99587.99;;;4.83;86.99
62057;BME280;48016;50.284;18.860;2022-11-11T00:16:14;99589.00;;;4.85;87.16
62057;BME280;48016;50.284;18.860;2022-11-11T00:18:42;99592.86;;;4.87;87.04
62057;BME280;48016;50.284;18.860;2022-11-11T00:21:47;99594.98;;;4.88;86.99
62057;BME280;48016;50.284;18.860;2022-11-11T00:24:38;99599.54;;;4.89;87.02
62057;BME280;48016;50.284;18.860;2022-11-11T00:27:30;99605.40;;;4.92;87.21
62057;BME280;48016;50.284;18.860;2022-11-11T00:29:57;99605.73;;;4.97;87.19
62057;BME280;48016;50.284;18.860;2022-11-11T00:32:23;99606.36;;;5.01;87.31
62057;BME280;48016;50.284;18.860;2022-11-11T00:34:55;99612.83;;;5.06;87.37
62057;BME280;48016;50.284;18.860;2022-11-11T00:37:42;99613.85;;;5.10;87.39
62057;BME280;48016;50.284;18.860;2022-11-11T00:40:10;99613.45;;;5.14;87.48
62057;BME280;48016;50.284;18.860;2022-11-11T00:42:37;99615.73;;;5.19;87.51
62057;BME280;48016;50.284;18.860;2022-11-11T00:45:05;99616.88;;;5.21;87.57
62057;BME280;48016;50.284;18.860;2022-11-11T00:47:32;99613.20;;;5.27;87.56
62057;BME280;48016;50.284;18.860;2022-11-11T00:50:23;99615.98;;;5.31;87.51
62057;BME280;48016;50.284;18.860;2022-11-11T00:53:24;99612.84;;;5.35;87.67
62057;BME280;48016;50.284;18.860;2022-11-11T00:55:51;99611.31;;;5.39;87.74
62057;BME280;48016;50.284;18.860;2022-11-11T00:58:27;99604.86;;;5.45;87.75
62057;BME280;48016;50.284;18.860;2022-11-11T01:00:53;99604.00;;;5.49;87.71
62057;BME280;48016;50.284;18.860;2022-11-11T01:03:40;99603.11;;;5.51;87.78
62057;BME280;48016;50.284;18.860;2022-11-11T01:06:09;99601.65;;;5.54;87.87
62057;BME280;48016;50.284;18.860;2022-11-11T01:08:38;99598.63;;;5.56;88.01
62057;BME280;48016;50.284;18.860;2022-11-11T01:11:17;99595.13;;;5.61;88.15
62057;BME280;48016;50.284;18.860;2022-11-11T01:13:44;99595.16;;;5.68;88.23
62057;BME280;48016;50.284;18.860;2022-11-11T01:16:14;99593.79;;;5.76;87.98
62057;BME280;48016;50.284;18.860;2022-11-11T01:18:43;99589.28;;;5.81;87.90
62057;BME280;48016;50.284;18.860;2022-11-11T01:21:12;99585.79;;;5.84;87.87
62057;BME280;48016;50.284;18.860;2022-11-11T01:23:40;99584.77;;;5.88;87.90
62057;BME280;48016;50.284;18.860;2022-11-11T01:29:12;99579.90;;;5.96;87.86
62057;BME280;48016;50.284;18.860;2022-11-11T01:31:38;99583.52;;;5.99;87.92
62057;BME280;48016;50.284;18.860;2022-11-11T01:34:07;99587.08;;;6.02;87.89
62057;BME280;48016;50.284;18.860;2022-11-11T01:36:33;99587.05;;;6.06;87.93
62057;BME280;48016;50.284;18.860;2022-11-11T01:39:00;99583.31;;;6.08;88.00
62057;BME280;48016;50.284;18.860;2022-11-11T01:41:30;99583.15;;;6.13;88.03
62057;BME280;48016;50.284;18.860;2022-11-11T01:46:41;99584.58;;;6.22;88.14
62057;BME280;48016;50.284;18.860;2022-11-11T01:57:56;99581.92;;;6.45;88.13
62057;BME280;48016;50.284;18.860;2022-11-11T02:00:25;99585.83;;;6.48;88.13
62057;BME280;48016;50.284;18.860;2022-11-11T02:03:26;99586.93;;;6.52;88.18
62057;BME280;48016;50.284;18.860;2022-11-11T02:05:56;99592.45;;;6.56;88.17
62057;BME280;48016;50.284;18.860;2022-11-11T02:08:27;99589.42;;;6.59;88.21
62057;BME280;48016;50.284;18.860;2022-11-11T02:11:03;99597.16;;;6.63;88.16
62057;BME280;48016;50.284;18.860;2022-11-11T02:13:32;99596.33;;;6.68;88.11
62057;BME280;48016;50.284;18.860;2022-11-11T02:16:35;99593.90;;;6.70;88.07
62057;BME280;48016;50.284;18.860;2022-11-11T02:22:22;99604.31;;;6.75;88.14
62057;BME280;48016;50.284;18.860;2022-11-11T02:24:50;99604.32;;;6.76;88.19
62057;BME280;48016;50.284;18.860;2022-11-11T02:27:18;99606.32;;;6.78;88.21
62057;BME280;48016;50.284;18.860;2022-11-11T02:29:48;99602.11;;;6.80;88.02
62057;BME280;48016;50.284;18.860;2022-11-11T02:32:16;99603.31;;;6.81;88.16
62057;BME280;48016;50.284;18.860;2022-11-11T02:34:42;99604.39;;;6.82;88.15
62057;BME280;48016;50.284;18.860;2022-11-11T02:37:17;99602.42;;;6.85;88.12
62057;BME280;48016;50.284;18.860;2022-11-11T02:39:47;99605.64;;;6.89;88.00
62057;BME280;48016;50.284;18.860;2022-11-11T02:42:15;99604.06;;;6.91;87.92
62057;BME280;48016;50.284;18.860;2022-11-11T02:44:43;99604.53;;;6.93;87.84
62057;BME280;48016;50.284;18.860;2022-11-11T02:47:11;99607.67;;;6.94;87.72
62057;BME280;48016;50.284;18.860;2022-11-11T02:49:38;99610.58;;;6.93;87.66
62057;BME280;48016;50.284;18.860;2022-11-11T02:52:07;99612.01;;;6.92;87.49
62057;BME280;48016;50.284;18.860;2022-11-11T02:54:33;99610.81;;;6.92;87.52
62057;BME280;48016;50.284;18.860;2022-11-11T02:57:00;99612.84;;;6.93;87.46
62057;BME280;48016;50.284;18.860;2022-11-11T02:59:37;99608.75;;;6.93;87.38
62057;BME280;48016;50.284;18.860;2022-11-11T03:02:06;99607.72;;;6.92;87.43
62057;BME280;48016;50.284;18.860;2022-11-11T03:04:33;99601.30;;;6.93;87.23
62057;BME280;48016;50.284;18.860;2022-11-11T03:07:08;99604.23;;;6.91;87.12
62057;BME280;48016;50.284;18.860;2022-11-11T03:09:34;99600.25;;;6.89;87.10
62057;BME280;48016;50.284;18.860;2022-11-11T03:12:13;99600.02;;;6.84;86.98
62057;BME280;48016;50.284;18.860;2022-11-11T03:14:40;99600.77;;;6.79;86.73
62057;BME280;48016;50.284;18.860;2022-11-11T03:17:08;99599.67;;;6.74;86.66
62057;BME280;48016;50.284;18.860;2022-11-11T03:19:54;99603.70;;;6.69;86.52
62057;BME280;48016;50.284;18.860;2022-11-11T03:22:40;99607.09;;;6.64;86.39
62057;BME280;48016;50.284;18.860;2022-11-11T03:25:07;99609.21;;;6.58;86.28
62057;BME280;48016;50.284;18.860;2022-11-11T03:27:54;99610.20;;;6.50;86.30
62057;BME280;48016;50.284;18.860;2022-11-11T03:30:20;99608.05;;;6.45;86.35
62057;BME280;48016;50.284;18.860;2022-11-11T03:32:47;99606.27;;;6.40;86.34
62057;BME280;48016;50.284;18.860;2022-11-11T03:35:14;99596.77;;;6.34;86.46
62057;BME280;48016;50.284;18.860;2022-11-11T03:37:40;99591.93;;;6.28;86.40
62057;BME280;48016;50.284;18.860;2022-11-11T03:40:25;99600.43;;;6.20;86.46
62057;BME280;48016;50.284;18.860;2022-11-11T03:42:52;99600.71;;;6.14;86.50
62057;BME280;48016;50.284;18.860;2022-11-11T03:45:24;99599.34;;;6.09;86.68
62057;BME280;48016;50.284;18.860;2022-11-11T03:47:51;99599.73;;;6.06;86.63
62057;BME280;48016;50.284;18.860;2022-11-11T03:50:21;99594.39;;;6.03;86.74
62057;BME280;48016;50.284;18.860;2022-11-11T03:52:48;99604.12;;;6.01;86.82
62057;BME280;48016;50.284;18.860;2022-11-11T03:55:17;99608.02;;;5.99;86.85
62057;BME280;48016;50.284;18.860;2022-11-11T03:57:45;99606.83;;;5.95;86.93
62057;BME280;48016;50.284;18.860;2022-11-11T04:00:19;99604.42;;;5.93;86.93
62057;BME280;48016;50.284;18.860;2022-11-11T04:02:47;99595.20;;;5.91;87.03
62057;BME280;48016;50.284;18.860;2022-11-11T04:05:32;99592.58;;;5.89;87.16
62057;BME280;48016;50.284;18.860;2022-11-11T04:08:20;99588.30;;;5.87;87.21
62057;BME280;48016;50.284;18.860;2022-11-11T04:11:14;99589.95;;;5.85;87.02
62057;BME280;48016;50.284;18.860;2022-11-11T04:13:45;99587.96;;;5.81;87.01
62057;BME280;48016;50.284;18.860;2022-11-11T04:16:33;99595.40;;;5.76;87.04
62057;BME280;48016;50.284;18.860;2022-11-11T04:18:59;99591.72;;;5.72;87.08
62057;BME280;48016;50.284;18.860;2022-11-11T04:21:44;99591.45;;;5.69;87.24
62057;BME280;48016;50.284;18.860;2022-11-11T04:24:18;99591.86;;;5.66;87.16
62057;BME280;48016;50.284;18.860;2022-11-11T04:27:15;99589.29;;;5.64;87.34
62057;BME280;48016;50.284;18.860;2022-11-11T04:29:42;99589.15;;;5.62;87.30
62057;BME280;48016;50.284;18.860;2022-11-11T04:32:11;99598.87;;;5.60;87.40
62057;BME280;48016;50.284;18.860;2022-11-11T04:35:02;99600.23;;;5.60;87.65
62057;BME280;48016;50.284;18.860;2022-11-11T04:37:59;99609.08;;;5.61;87.61
62057;BME280;48016;50.284;18.860;2022-11-11T04:40:45;99618.31;;;5.60;87.72
62057;BME280;48016;50.284;18.860;2022-11-11T04:43:30;99627.64;;;5.60;87.57
62057;BME280;48016;50.284;18.860;2022-11-11T04:46:13;99625.59;;;5.58;87.49
62057;BME280;48016;50.284;18.860;2022-11-11T04:48:39;99624.20;;;5.55;87.41
62057;BME280;48016;50.284;18.860;2022-11-11T04:51:07;99628.92;;;5.53;87.56
62057;BME280;48016;50.284;18.860;2022-11-11T04:53:34;99629.53;;;5.52;87.53
62057;BME280;48016;50.284;18.860;2022-11-11T04:56:02;99636.29;;;5.51;87.43
62057;BME280;48016;50.284;18.860;2022-11-11T04:58:47;99636.59;;;5.49;87.47
62057;BME280;48016;50.284;18.860;2022-11-11T05:01:38;99641.92;;;5.46;87.56
62057;BME280;48016;50.284;18.860;2022-11-11T05:04:28;99645.79;;;5.45;87.53
62057;BME280;48016;50.284;18.860;2022-11-11T05:06:55;99647.61;;;5.44;87.70
62057;BME280;48016;50.284;18.860;2022-11-11T05:09:41;99648.55;;;5.43;87.64
62057;BME280;48016;50.284;18.860;2022-11-11T05:12:14;99645.17;;;5.41;87.68
62057;BME280;48016;50.284;18.860;2022-11-11T05:14:41;99654.01;;;5.42;87.79
62057;BME280;48016;50.284;18.860;2022-11-11T05:17:26;99657.98;;;5.43;87.79
62057;BME280;48016;50.284;18.860;2022-11-11T05:20:12;99665.09;;;5.47;87.93
62057;BME280;48016;50.284;18.860;2022-11-11T05:23:03;99670.04;;;5.50;87.95
62057;BME280;48016;50.284;18.860;2022-11-11T05:25:29;99674.41;;;5.54;87.87
62057;BME280;48016;50.284;18.860;2022-11-11T05:27:59;99678.91;;;5.55;88.02
62057;BME280;48016;50.284;18.860;2022-11-11T05:30:26;99681.45;;;5.56;88.04
62057;BME280;48016;50.284;18.860;2022-11-11T05:32:54;99682.34;;;5.57;88.13
62057;BME280;48016;50.284;18.860;2022-11-11T05:35:33;99683.68;;;5.60;87.97
62057;BME280;48016;50.284;18.860;2022-11-11T05:38:05;99695.90;;;5.60;87.99
62057;BME280;48016;50.284;18.860;2022-11-11T05:40:47;99695.23;;;5.62;88.11
62057;BME280;48016;50.284;18.860;2022-11-11T05:43:16;99698.20;;;5.62;87.96
62057;BME280;48016;50.284;18.860;2022-11-11T05:45:46;99694.86;;;5.62;87.94
62057;BME280;48016;50.284;18.860;2022-11-11T05:48:13;99694.15;;;5.62;88.07
62057;BME280;48016;50.284;18.860;2022-11-11T05:50:40;99691.06;;;5.62;87.99
62057;BME280;48016;50.284;18.860;2022-11-11T05:53:07;99687.04;;;5.61;88.06
62057;BME280;48016;50.284;18.860;2022-11-11T05:55:34;99682.94;;;5.60;88.19
62057;BME280;48016;50.284;18.860;2022-11-11T05:58:02;99685.04;;;5.62;88.21
62057;BME280;48016;50.284;18.860;2022-11-11T06:00:29;99687.23;;;5.63;88.29
62057;BME280;48016;50.284;18.860;2022-11-11T06:03:04;99696.84;;;5.66;88.41
62057;BME280;48016;50.284;18.860;2022-11-11T06:05:37;99702.02;;;5.71;88.35
62057;BME280;48016;50.284;18.860;2022-11-11T06:08:04;99705.67;;;5.73;88.39
62057;BME280;48016;50.284;18.860;2022-11-11T06:10:31;99705.80;;;5.78;88.35
62057;BME280;48016;50.284;18.860;2022-11-11T06:13:02;99706.98;;;5.79;88.31
62057;BME280;48016;50.284;18.860;2022-11-11T06:15:36;99697.98;;;5.83;88.34
62057;BME280;48016;50.284;18.860;2022-11-11T06:18:34;99691.91;;;5.87;88.26
62057;BME280;48016;50.284;18.860;2022-11-11T06:21:01;99691.42;;;5.91;88.23
62057;BME280;48016;50.284;18.860;2022-11-11T06:23:28;99683.13;;;5.95;88.22
62057;BME280;48016;50.284;18.860;2022-11-11T06:25:55;99680.02;;;5.97;88.06
62057;BME280;48016;50.284;18.860;2022-11-11T06:28:53;99681.80;;;6.00;88.12
62057;BME280;48016;50.284;18.860;2022-11-11T06:31:26;99684.61;;;6.01;88.12
62057;BME280;48016;50.284;18.860;2022-11-11T06:33:52;99684.66;;;6.05;88.16
62057;BME280;48016;50.284;18.860;2022-11-11T06:36:21;99687.95;;;6.09;88.07
62057;BME280;48016;50.284;18.860;2022-11-11T06:38:48;99687.94;;;6.12;88.05
62057;BME280;48016;50.284;18.860;2022-11-11T06:41:14;99689.71;;;6.17;88.04
62057;BME280;48016;50.284;18.860;2022-11-11T06:43:42;99687.09;;;6.22;87.90
62057;BME280;48016;50.284;18.860;2022-11-11T06:46:22;99687.67;;;6.27;87.89
62057;BME280;48016;50.284;18.860;2022-11-11T06:48:49;99692.68;;;6.33;87.84
62057;BME280;48016;50.284;18.860;2022-11-11T06:51:16;99694.34;;;6.40;87.91
62057;BME280;48016;50.284;18.860;2022-11-11T06:53:43;99686.43;;;6.47;87.89
62057;BME280;48016;50.284;18.860;2022-11-11T06:56:11;99684.52;;;6.55;87.83
62057;BME280;48016;50.284;18.860;2022-11-11T06:58:38;99684.59;;;6.66;87.89
62057;BME280;48016;50.284;18.860;2022-11-11T07:01:06;99688.27;;;6.77;87.77
62057;BME280;48016;50.284;18.860;2022-11-11T07:03:34;99691.20;;;6.88;87.57
62057;BME280;48016;50.284;18.860;2022-11-11T07:06:01;99688.66;;;6.99;87.63
62057;BME280;48016;50.284;18.860;2022-11-11T07:08:28;99681.00;;;7.07;87.53
62057;BME280;48016;50.284;18.860;2022-11-11T07:10:56;99683.61;;;7.14;87.43
62057;BME280;48016;50.284;18.860;2022-11-11T07:13:22;99683.58;;;7.21;87.42
62057;BME280;48016;50.284;18.860;2022-11-11T07:15:56;99685.45;;;7.33;87.30
62057;BME280;48016;50.284;18.860;2022-11-11T07:18:22;99687.61;;;7.45;87.33
62057;BME280;48016;50.284;18.860;2022-11-11T07:20:49;99693.46;;;7.59;87.24
62057;BME280;48016;50.284;18.860;2022-11-11T07:23:16;99696.08;;;7.75;87.11
62057;BME280;48016;50.284;18.860;2022-11-11T07:25:47;99700.81;;;7.92;86.96
62057;BME280;48016;50.284;18.860;2022-11-11T07:28:14;99696.25;;;8.07;86.78
62057;BME280;48016;50.284;18.860;2022-11-11T07:30:40;99693.58;;;8.25;86.79
62057;BME280;48016;50.284;18.860;2022-11-11T07:33:07;99692.83;;;8.41;86.46
62057;BME280;48016;50.284;18.860;2022-11-11T07:36:01;99693.34;;;8.56;86.16
62057;BME280;48016;50.284;18.860;2022-11-11T07:38:27;99687.65;;;8.75;85.85
62057;BME280;48016;50.284;18.860;2022-11-11T07:40:54;99682.90;;;8.85;85.58
62057;BME280;48016;50.284;18.860;2022-11-11T07:43:21;99672.98;;;8.92;85.38
62057;BME280;48016;50.284;18.860;2022-11-11T07:45:50;99675.98;;;8.97;85.15
62057;BME280;48016;50.284;18.860;2022-11-11T07:48:17;99676.73;;;9.01;84.94
62057;BME280;48016;50.284;18.860;2022-11-11T07:50:43;99676.18;;;9.04;84.76
62057;BME280;48016;50.284;18.860;2022-11-11T07:53:10;99671.65;;;9.04;84.53
62057;BME280;48016;50.284;18.860;2022-11-11T07:55:37;99670.17;;;9.04;84.30
62057;BME280;48016;50.284;18.860;2022-11-11T07:58:05;99666.10;;;9.00;84.15
62057;BME280;48016;50.284;18.860;2022-11-11T08:00:33;99664.88;;;8.96;83.93
62057;BME280;48016;50.284;18.860;2022-11-11T08:03:00;99666.75;;;8.91;83.93
62057;BME280;48016;50.284;18.860;2022-11-11T08:05:27;99668.20;;;8.86;83.62
62057;BME280;48016;50.284;18.860;2022-11-11T08:07:53;99668.09;;;8.83;83.67
62057;BME280;48016;50.284;18.860;2022-11-11T08:10:20;99662.83;;;8.83;83.52
62057;BME280;48016;50.284;18.860;2022-11-11T08:13:07;99661.08;;;8.86;83.50
62057;BME280;48016;50.284;18.860;2022-11-11T08:16:18;99660.31;;;8.90;83.45
62057;BME280;48016;50.284;18.860;2022-11-11T08:18:44;99648.89;;;8.95;83.37
62057;BME280;48016;50.284;18.860;2022-11-11T08:21:11;99644.00;;;8.97;83.38
62057;BME280;48016;50.284;18.860;2022-11-11T08:23:38;99648.79;;;9.04;83.21
62057;BME280;48016;50.284;18.860;2022-11-11T08:26:05;99658.61;;;9.10;83.11
62057;BME280;48016;50.284;18.860;2022-11-11T08:28:34;99661.75;;;9.16;83.10
62057;BME280;48016;50.284;18.860;2022-11-11T08:31:01;99663.01;;;9.24;83.05
62057;BME280;48016;50.284;18.860;2022-11-11T08:33:28;99668.88;;;9.30;82.67
62057;BME280;48016;50.284;18.860;2022-11-11T08:35:58;99670.80;;;9.38;82.57
62057;BME280;48016;50.284;18.860;2022-11-11T08:38:25;99670.39;;;9.47;82.48
62057;BME280;48016;50.284;18.860;2022-11-11T08:40:53;99683.98;;;9.54;82.31
62057;BME280;48016;50.284;18.860;2022-11-11T08:43:21;99686.70;;;9.60;82.06
62057;BME280;48016;50.284;18.860;2022-11-11T08:45:51;99681.60;;;9.68;82.15
62057;BME280;48016;50.284;18.860;2022-11-11T08:48:18;99681.38;;;9.78;81.97
62057;BME280;48016;50.284;18.860;2022-11-11T08:50:53;99673.14;;;9.88;81.82
62057;BME280;48016;50.284;18.860;2022-11-11T08:53:19;99674.14;;;10.01;81.70
62057;BME280;48016;50.284;18.860;2022-11-11T08:55:46;99665.87;;;10.09;81.53
62057;BME280;48016;50.284;18.860;2022-11-11T08:58:32;99669.65;;;10.15;81.24
62057;BME280;48016;50.284;18.860;2022-11-11T09:00:59;99672.05;;;10.21;81.04
62057;BME280;48016;50.284;18.860;2022-11-11T09:03:27;99677.51;;;10.25;80.86
62057;BME280;48016;50.284;18.860;2022-11-11T09:05:59;99680.46;;;10.29;80.45
62057;BME280;48016;50.284;18.860;2022-11-11T09:08:25;99687.95;;;10.29;80.22
62057;BME280;48016;50.284;18.860;2022-11-11T09:10:52;99687.66;;;10.26;80.04
62057;BME280;48016;50.284;18.860;2022-11-11T09:13:19;99690.98;;;10.26;79.91
62057;BME280;48016;50.284;18.860;2022-11-11T09:15:45;99691.66;;;10.26;79.94
62057;BME280;48016;50.284;18.860;2022-11-11T09:18:12;99697.35;;;10.28;79.86
62057;BME280;48016;50.284;18.860;2022-11-11T09:20:40;99699.02;;;10.30;79.96
62057;BME280;48016;50.284;18.860;2022-11-11T09:23:07;99703.65;;;10.32;80.02
62057;BME280;48016;50.284;18.860;2022-11-11T09:25:33;99701.70;;;10.32;79.96
62057;BME280;48016;50.284;18.860;2022-11-11T09:28:05;99695.93;;;10.32;79.77
62057;BME280;48016;50.284;18.860;2022-11-11T09:30:33;99692.30;;;10.33;79.38
62057;BME280;48016;50.284;18.860;2022-11-11T09:33:01;99692.91;;;10.39;79.47
62057;BME280;48016;50.284;18.860;2022-11-11T09:35:33;99692.52;;;10.48;79.54
62057;BME280;48016;50.284;18.860;2022-11-11T09:38:01;99694.98;;;10.57;79.55
62057;BME280;48016;50.284;18.860;2022-11-11T09:40:50;99701.52;;;10.60;79.21
62057;BME280;48016;50.284;18.860;2022-11-11T09:46:15;99702.80;;;10.67;78.78
62057;BME280;48016;50.284;18.860;2022-11-11T09:52:27;99691.46;;;10.73;78.21
62057;BME280;48016;50.284;18.860;2022-11-11T09:55:02;99690.38;;;10.74;78.17
62057;BME280;48016;50.284;18.860;2022-11-11T09:57:44;99690.66;;;10.76;78.17
62057;BME280;48016;50.284;18.860;2022-11-11T10:00:20;99689.30;;;10.78;77.97
62057;BME280;48016;50.284;18.860;2022-11-11T10:03:01;99686.86;;;10.81;77.93
62057;BME280;48016;50.284;18.860;2022-11-11T10:08:58;99704.33;;;10.91;77.44
62057;BME280;48016;50.284;18.860;2022-11-11T10:14:00;99696.47;;;11.12;77.06
62057;BME280;48016;50.284;18.860;2022-11-11T10:17:12;99693.41;;;11.24;77.05
62057;BME280;48016;50.284;18.860;2022-11-11T10:22:31;99694.98;;;11.59;76.69
62057;BME280;48016;50.284;18.860;2022-11-11T10:25:13;99687.50;;;11.72;76.06
62057;BME280;48016;50.284;18.860;2022-11-11T10:27:56;99683.17;;;11.90;75.78
62057;BME280;48016;50.284;18.860;2022-11-11T10:30:30;99683.16;;;12.01;75.42
62057;BME280;48016;50.284;18.860;2022-11-11T10:33:11;99686.74;;;12.11;75.18
62057;BME280;48016;50.284;18.860;2022-11-11T10:35:40;99683.54;;;12.19;75.02
62057;BME280;48016;50.284;18.860;2022-11-11T10:38:46;99681.61;;;12.25;74.69
62057;BME280;48016;50.284;18.860;2022-11-11T10:41:20;99679.64;;;12.30;73.89
62057;BME280;48016;50.284;18.860;2022-11-11T10:43:49;99670.79;;;12.35;73.80
62057;BME280;48016;50.284;18.860;2022-11-11T10:46:35;99666.03;;;12.40;73.91
62057;BME280;48016;50.284;18.860;2022-11-11T10:49:15;99670.04;;;12.39;73.29
62057;BME280;48016;50.284;18.860;2022-11-11T10:52:06;99665.95;;;12.38;72.39
62057;BME280;48016;50.284;18.860;2022-11-11T10:57:39;99662.84;;;12.33;71.99
62057;BME280;48016;50.284;18.860;2022-11-11T11:00:16;99663.41;;;12.32;72.42
62057;BME280;48016;50.284;18.860;2022-11-11T11:05:41;99665.98;;;12.31;72.31
62057;BME280;48016;50.284;18.860;2022-11-11T11:08:34;99660.20;;;12.27;72.04
62057;BME280;48016;50.284;18.860;2022-11-11T11:11:08;99662.09;;;12.23;72.00
62057;BME280;48016;50.284;18.860;2022-11-11T11:16:16;99656.54;;;12.17;72.09
62057;BME280;48016;50.284;18.860;2022-11-11T11:22:04;99672.09;;;12.07;71.86
62057;BME280;48016;50.284;18.860;2022-11-11T11:24:32;99669.05;;;12.04;72.19
62057;BME280;48016;50.284;18.860;2022-11-11T11:27:03;99674.74;;;12.03;72.08
62057;BME280;48016;50.284;18.860;2022-11-11T11:29:48;99669.37;;;12.02;72.31
62057;BME280;48016;50.284;18.860;2022-11-11T11:32:19;99668.30;;;12.04;72.32
62057;BME280;48016;50.284;18.860;2022-11-11T11:34:51;99665.55;;;12.09;72.38
62057;BME280;48016;50.284;18.860;2022-11-11T11:37:21;99660.05;;;12.12;72.04
62057;BME280;48016;50.284;18.860;2022-11-11T11:40:05;99656.06;;;12.16;71.98
62057;BME280;48016;50.284;18.860;2022-11-11T11:42:37;99662.23;;;12.20;71.96
62057;BME280;48016;50.284;18.860;2022-11-11T11:45:25;99660.33;;;12.24;71.87
62057;BME280;48016;50.284;18.860;2022-11-11T11:55:17;99655.52;;;12.25;71.38
62057;BME280;48016;50.284;18.860;2022-11-11T12:00:26;99652.05;;;12.20;71.37
62057;BME280;48016;50.284;18.860;2022-11-11T12:05:49;99659.81;;;12.16;71.08
62057;BME280;48016;50.284;18.860;2022-11-11T12:09:05;99658.73;;;12.16;71.39
62057;BME280;48016;50.284;18.860;2022-11-11T12:21:23;99641.88;;;12.14;71.32
62057;BME280;48016;50.284;18.860;2022-11-11T12:24:16;99640.14;;;12.12;71.36
62057;BME280;48016;50.284;18.860;2022-11-11T12:30:02;99635.64;;;12.06;70.91
62057;BME280;48016;50.284;18.860;2022-11-11T12:33:01;99629.97;;;12.05;71.01
62057;BME280;48016;50.284;18.860;2022-11-11T12:38:23;99624.21;;;12.00;71.19
62057;BME280;48016;50.284;18.860;2022-11-11T12:43:39;99627.65;;;11.97;71.32
62057;BME280;48016;50.284;18.860;2022-11-11T12:55:29;99629.45;;;11.80;71.50
62057;BME280;48016;50.284;18.860;2022-11-11T12:59:18;99631.77;;;11.77;71.52
62057;BME280;48016;50.284;18.860;2022-11-11T13:12:42;99620.80;;;11.64;71.78
62057;BME280;48016;50.284;18.860;2022-11-11T13:15:34;99612.17;;;11.62;71.89
62057;BME280;48016;50.284;18.860;2022-11-11T13:18:01;99617.10;;;11.58;71.84
62057;BME280;48016;50.284;18.860;2022-11-11T13:23:08;99603.80;;;11.52;71.99
62057;BME280;48016;50.284;18.860;2022-11-11T13:25:38;99604.58;;;11.47;71.99
62057;BME280;48016;50.284;18.860;2022-11-11T13:28:28;99612.33;;;11.40;71.97
62057;BME280;48016;50.284;18.860;2022-11-11T13:33:45;99621.45;;;11.27;72.14
62057;BME280;48016;50.284;18.860;2022-11-11T13:36:15;99619.69;;;11.26;72.34
62057;BME280;48016;50.284;18.860;2022-11-11T13:38:44;99620.25;;;11.23;72.48
62057;BME280;48016;50.284;18.860;2022-11-11T13:41:28;99620.83;;;11.20;72.66
62057;BME280;48016;50.284;18.860;2022-11-11T13:44:01;99619.35;;;11.22;72.79
62057;BME280;48016;50.284;18.860;2022-11-11T13:49:24;99622.27;;;11.21;72.86
62057;BME280;48016;50.284;18.860;2022-11-11T13:51:59;99625.52;;;11.20;72.94
62057;BME280;48016;50.284;18.860;2022-11-11T13:54:30;99625.52;;;11.18;73.03
62057;BME280;48016;50.284;18.860;2022-11-11T13:57:15;99623.96;;;11.15;73.14
62057;BME280;48016;50.284;18.860;2022-11-11T13:59:53;99620.05;;;11.12;73.25
62057;BME280;48016;50.284;18.860;2022-11-11T14:07:48;99627.13;;;11.01;73.57
62057;BME280;48016;50.284;18.860;2022-11-11T14:12:49;99616.61;;;10.89;74.04
62057;BME280;48016;50.284;18.860;2022-11-11T14:20:50;99608.25;;;10.76;74.56
62057;BME280;48016;50.284;18.860;2022-11-11T14:25:45;99612.38;;;10.67;74.97
62057;BME280;48016;50.284;18.860;2022-11-11T14:30:46;99616.64;;;10.60;75.41
62057;BME280;48016;50.284;18.860;2022-11-11T14:35:58;99618.36;;;10.55;75.68
62057;BME280;48016;50.284;18.860;2022-11-11T14:57:33;99619.71;;;10.20;76.72
62057;BME280;48016;50.284;18.860;2022-11-11T15:00:04;99619.83;;;10.16;76.82
62057;BME280;48016;50.284;18.860;2022-11-11T15:02:37;99619.36;;;10.07;76.91
62057;BME280;48016;50.284;18.860;2022-11-11T15:05:19;99619.92;;;10.02;77.15
62057;BME280;48016;50.284;18.860;2022-11-11T15:07:59;99617.43;;;9.97;77.10
62057;BME280;48016;50.284;18.860;2022-11-11T15:10:52;99616.85;;;9.91;77.28
62057;BME280;48016;50.284;18.860;2022-11-11T15:16:22;99616.97;;;9.79;77.67
62057;BME280;48016;50.284;18.860;2022-11-11T15:21:35;99621.88;;;9.71;77.99
62057;BME280;48016;50.284;18.860;2022-11-11T15:24:16;99622.78;;;9.67;78.02
62057;BME280;48016;50.284;18.860;2022-11-11T15:26:50;99621.77;;;9.62;78.22
62057;BME280;48016;50.284;18.860;2022-11-11T15:32:56;99620.83;;;9.54;78.43
62057;BME280;48016;50.284;18.860;2022-11-11T15:37:58;99629.70;;;9.44;78.69
62057;BME280;48016;50.284;18.860;2022-11-11T15:40:31;99628.36;;;9.40;78.69
62057;BME280;48016;50.284;18.860;2022-11-11T15:42:58;99630.20;;;9.36;78.60
62057;BME280;48016;50.284;18.860;2022-11-11T15:45:33;99630.65;;;9.30;78.81
62057;BME280;48016;50.284;18.860;2022-11-11T15:48:02;99629.42;;;9.25;78.96
62057;BME280;48016;50.284;18.860;2022-11-11T15:50:32;99627.77;;;9.20;79.12
62057;BME280;48016;50.284;18.860;2022-11-11T15:53:02;99626.42;;;9.16;79.14
62057;BME280;48016;50.284;18.860;2022-11-11T15:55:52;99627.34;;;9.14;79.24
62057;BME280;48016;50.284;18.860;2022-11-11T15:58:26;99629.10;;;9.11;79.37
62057;BME280;48016;50.284;18.860;2022-11-11T16:00:54;99630.40;;;9.08;79.54
62057;BME280;48016;50.284;18.860;2022-11-11T16:03:34;99630.77;;;9.06;79.64
62057;BME280;48016;50.284;18.860;2022-11-11T16:06:13;99632.45;;;9.02;79.69
62057;BME280;48016;50.284;18.860;2022-11-11T16:08:42;99628.68;;;8.97;79.79